BAW247 EGLL-SBGR
Flight info
| Callsign | BAW247 |
|---|---|
| Flight time | N/A |
| Altitude | 33000 |
| Route | GOGSI2F GOGSI N621 SAM M195 LORKU DCT BALDA DCT ABUPI DCT BEXAL/N0490F350 DCT SAMAR DCT YUSME DCT LIMAL/N0495F360 N873 IPERA UN873 SADBA/N0493F380 UN873 NTL DCT OPTUR DCT ASGIK UZ21 KORKA/N0486F400 UZ21 VUNOX SANPA1A |
| Aircraft | A35K/H-SBDE1E2E3GHIJ1J3J4J5J6M1M2P2RWXYZ/LB1D1 |
Departure
| Time | N/A |
|---|---|
| Airport | London Heathrow Airport (EGLL) |
Arrival
| Time | 2026-05-05 22:40 |
|---|---|
| Airport | São Paulo/Guarulhos–Governor André Franco Montoro International Airport (SBGR) |
| Time | Latitude | Longitude | Altitude | Speed | Heading |
|---|---|---|---|---|---|
| 2026-05-05 21:58 | -20.00489 | -44.39331 | 40206 ft | 435 kts | 216° |
| 2026-05-05 21:58 | -20.02907 | -44.41208 | 40206 ft | 435 kts | 216° |
| 2026-05-05 21:59 | -20.07789 | -44.45000 | 40209 ft | 434 kts | 216° |
| 2026-05-05 21:59 | -20.12668 | -44.48793 | 40210 ft | 434 kts | 216° |
| 2026-05-05 22:00 | -20.17544 | -44.52592 | 40209 ft | 434 kts | 216° |
| 2026-05-05 22:00 | -20.22003 | -44.56058 | 40209 ft | 434 kts | 216° |
| 2026-05-05 22:01 | -20.26881 | -44.59849 | 40211 ft | 434 kts | 216° |
| 2026-05-05 22:01 | -20.31719 | -44.63617 | 40212 ft | 434 kts | 216° |
| 2026-05-05 22:02 | -20.36624 | -44.67441 | 40209 ft | 433 kts | 216° |
| 2026-05-05 22:02 | -20.41493 | -44.71241 | 40207 ft | 433 kts | 216° |
| 2026-05-05 22:03 | -20.46324 | -44.75014 | 40211 ft | 433 kts | 216° |
| 2026-05-05 22:03 | -20.51195 | -44.78825 | 40210 ft | 434 kts | 216° |
| 2026-05-05 22:04 | -20.56065 | -44.82625 | 40214 ft | 433 kts | 216° |
| 2026-05-05 22:04 | -20.60925 | -44.86417 | 40208 ft | 432 kts | 216° |
| 2026-05-05 22:05 | -20.65775 | -44.90210 | 40212 ft | 432 kts | 216° |
| 2026-05-05 22:05 | -20.70619 | -44.94003 | 40213 ft | 432 kts | 216° |
| 2026-05-05 22:06 | -20.75473 | -44.97808 | 40211 ft | 433 kts | 216° |
| 2026-05-05 22:06 | -20.80321 | -45.01621 | 40210 ft | 433 kts | 216° |
| 2026-05-05 22:07 | -20.85138 | -45.05409 | 40206 ft | 433 kts | 216° |
| 2026-05-05 22:07 | -20.89989 | -45.09230 | 40206 ft | 433 kts | 216° |
| 2026-05-05 22:08 | -20.94840 | -45.13055 | 40204 ft | 433 kts | 216° |
| 2026-05-05 22:08 | -20.99699 | -45.16880 | 40202 ft | 433 kts | 216° |
| 2026-05-05 22:09 | -21.04549 | -45.20702 | 40200 ft | 433 kts | 216° |
| 2026-05-05 22:09 | -21.09360 | -45.24499 | 40200 ft | 432 kts | 216° |
| 2026-05-05 22:10 | -21.14192 | -45.28315 | 40200 ft | 431 kts | 216° |
| 2026-05-05 22:10 | -21.19029 | -45.32137 | 40202 ft | 432 kts | 216° |
| 2026-05-05 22:11 | -21.23857 | -45.35956 | 40197 ft | 432 kts | 216° |
| 2026-05-05 22:11 | -21.28689 | -45.39784 | 40206 ft | 431 kts | 216° |
| 2026-05-05 22:12 | -21.33508 | -45.43604 | 40204 ft | 430 kts | 216° |
| 2026-05-05 22:12 | -21.38320 | -45.47417 | 40206 ft | 430 kts | 216° |
| 2026-05-05 22:13 | -21.43101 | -45.51211 | 40192 ft | 430 kts | 216° |
| 2026-05-05 22:13 | -21.47913 | -45.55035 | 40189 ft | 430 kts | 216° |
| 2026-05-05 22:14 | -21.52729 | -45.58856 | 40201 ft | 430 kts | 216° |
| 2026-05-05 22:14 | -21.57553 | -45.62638 | 40200 ft | 429 kts | 216° |
| 2026-05-05 22:15 | -21.62380 | -45.66418 | 40195 ft | 429 kts | 216° |
| 2026-05-05 22:15 | -21.64782 | -45.68304 | 40026 ft | 427 kts | 216° |
| 2026-05-05 22:15 | -21.67187 | -45.70193 | 39793 ft | 429 kts | 216° |
| 2026-05-05 22:15 | -21.69586 | -45.72081 | 39411 ft | 425 kts | 216° |
| 2026-05-05 22:16 | -21.71968 | -45.73956 | 38829 ft | 423 kts | 216° |
| 2026-05-05 22:16 | -21.74342 | -45.75825 | 38122 ft | 423 kts | 216° |
| 2026-05-05 22:16 | -21.76710 | -45.77691 | 37498 ft | 421 kts | 216° |
| 2026-05-05 22:16 | -21.79074 | -45.79553 | 36853 ft | 420 kts | 216° |
| 2026-05-05 22:17 | -21.81434 | -45.81413 | 36206 ft | 420 kts | 216° |
| 2026-05-05 22:17 | -21.83787 | -45.83269 | 35532 ft | 420 kts | 217° |
| 2026-05-05 22:17 | -21.86121 | -45.85110 | 34838 ft | 422 kts | 217° |
| 2026-05-05 22:17 | -21.88504 | -45.86990 | 34056 ft | 426 kts | 217° |
| 2026-05-05 22:18 | -21.90904 | -45.88886 | 33204 ft | 430 kts | 217° |
| 2026-05-05 22:18 | -21.92544 | -45.90184 | 32656 ft | 434 kts | 217° |
| 2026-05-05 22:18 | -21.94990 | -45.92120 | 31811 ft | 440 kts | 217° |
| 2026-05-05 22:18 | -21.97473 | -45.94084 | 30990 ft | 444 kts | 217° |
| 2026-05-05 22:19 | -21.99971 | -45.96062 | 30384 ft | 445 kts | 217° |
| 2026-05-05 22:19 | -22.02435 | -45.98011 | 29707 ft | 443 kts | 217° |
| 2026-05-05 22:19 | -22.04910 | -45.99971 | 29072 ft | 439 kts | 216° |
| 2026-05-05 22:19 | -22.07364 | -46.01914 | 28467 ft | 436 kts | 216° |
| 2026-05-05 22:20 | -22.09802 | -46.03847 | 27839 ft | 433 kts | 216° |
| 2026-05-05 22:20 | -22.12223 | -46.05766 | 27229 ft | 430 kts | 216° |
| 2026-05-05 22:20 | -22.14631 | -46.07676 | 26636 ft | 428 kts | 216° |
| 2026-05-05 22:20 | -22.17020 | -46.09573 | 26041 ft | 425 kts | 216° |
| 2026-05-05 22:21 | -22.19395 | -46.11457 | 25420 ft | 423 kts | 216° |
| 2026-05-05 22:21 | -22.21753 | -46.13331 | 24822 ft | 420 kts | 216° |
| 2026-05-05 22:21 | -22.24102 | -46.15199 | 24234 ft | 418 kts | 216° |
| 2026-05-05 22:21 | -22.26416 | -46.17039 | 23611 ft | 417 kts | 216° |
| 2026-05-05 22:22 | -22.28745 | -46.18891 | 22974 ft | 415 kts | 216° |
| 2026-05-05 22:22 | -22.31162 | -46.20579 | 22370 ft | 412 kts | 207° |
| 2026-05-05 22:22 | -22.33858 | -46.21609 | 21853 ft | 417 kts | 192° |
| 2026-05-05 22:22 | -22.36776 | -46.22143 | 21425 ft | 428 kts | 188° |
| 2026-05-05 22:23 | -22.39730 | -46.22590 | 20840 ft | 428 kts | 188° |
| 2026-05-05 22:23 | -22.42681 | -46.23032 | 20316 ft | 426 kts | 188° |
| 2026-05-05 22:23 | -22.45574 | -46.23470 | 19803 ft | 423 kts | 188° |
| 2026-05-05 22:23 | -22.48476 | -46.23914 | 19297 ft | 421 kts | 188° |
| 2026-05-05 22:24 | -22.51373 | -46.24360 | 18797 ft | 418 kts | 188° |
| 2026-05-05 22:24 | -22.54252 | -46.24805 | 18263 ft | 417 kts | 188° |
| 2026-05-05 22:24 | -22.57119 | -46.25248 | 17842 ft | 414 kts | 188° |
| 2026-05-05 22:24 | -22.59967 | -46.25690 | 17496 ft | 411 kts | 188° |
| 2026-05-05 22:25 | -22.62793 | -46.26130 | 17136 ft | 408 kts | 188° |
| 2026-05-05 22:25 | -22.65595 | -46.26565 | 16781 ft | 407 kts | 188° |
| 2026-05-05 22:25 | -22.68388 | -46.27000 | 16430 ft | 404 kts | 188° |
| 2026-05-05 22:25 | -22.71166 | -46.27432 | 16074 ft | 402 kts | 187° |
| 2026-05-05 22:26 | -22.73898 | -46.27857 | 15721 ft | 400 kts | 187° |
| 2026-05-05 22:26 | -22.76647 | -46.28307 | 15371 ft | 400 kts | 189° |
| 2026-05-05 22:26 | -22.79323 | -46.29222 | 15017 ft | 399 kts | 204° |
| 2026-05-05 22:26 | -22.81734 | -46.30609 | 14653 ft | 398 kts | 209° |
| 2026-05-05 22:27 | -22.84131 | -46.32107 | 14309 ft | 396 kts | 209° |
| 2026-05-05 22:27 | -22.86515 | -46.33604 | 13957 ft | 395 kts | 209° |
| 2026-05-05 22:27 | -22.88889 | -46.35088 | 13570 ft | 393 kts | 209° |
| 2026-05-05 22:27 | -22.91256 | -46.36562 | 13213 ft | 391 kts | 209° |
| 2026-05-05 22:28 | -22.93609 | -46.38026 | 12894 ft | 388 kts | 209° |
| 2026-05-05 22:28 | -22.95922 | -46.39463 | 12665 ft | 373 kts | 209° |
| 2026-05-05 22:28 | -22.98125 | -46.40834 | 12407 ft | 358 kts | 209° |
| 2026-05-05 22:28 | -23.00245 | -46.42152 | 12162 ft | 345 kts | 209° |
| 2026-05-05 22:29 | -23.02265 | -46.43408 | 11908 ft | 328 kts | 209° |
| 2026-05-05 22:29 | -23.04213 | -46.44620 | 11375 ft | 313 kts | 208° |
| 2026-05-05 22:29 | -23.06050 | -46.45763 | 10890 ft | 300 kts | 208° |
| 2026-05-05 22:29 | -23.07854 | -46.46884 | 10677 ft | 301 kts | 208° |
| 2026-05-05 22:30 | -23.09662 | -46.48007 | 10446 ft | 299 kts | 208° |
| 2026-05-05 22:30 | -23.11468 | -46.49131 | 10212 ft | 298 kts | 208° |
| 2026-05-05 22:30 | -23.13263 | -46.50248 | 9878 ft | 297 kts | 208° |
| 2026-05-05 22:30 | -23.15048 | -46.51358 | 9483 ft | 294 kts | 208° |
| 2026-05-05 22:31 | -23.16821 | -46.52462 | 9199 ft | 293 kts | 208° |
| 2026-05-05 22:31 | -23.18588 | -46.53564 | 8940 ft | 292 kts | 208° |
| 2026-05-05 22:31 | -23.20348 | -46.54661 | 8706 ft | 291 kts | 209° |
| 2026-05-05 22:31 | -23.22095 | -46.55776 | 8442 ft | 290 kts | 211° |
| 2026-05-05 22:32 | -23.23776 | -46.56974 | 8185 ft | 289 kts | 212° |
| 2026-05-05 22:32 | -23.25445 | -46.58188 | 7927 ft | 287 kts | 213° |
| 2026-05-05 22:32 | -23.27107 | -46.59390 | 7673 ft | 286 kts | 213° |
| 2026-05-05 22:32 | -23.28748 | -46.60571 | 7427 ft | 285 kts | 212° |
| 2026-05-05 22:33 | -23.30409 | -46.61754 | 7172 ft | 284 kts | 212° |
| 2026-05-05 22:33 | -23.32058 | -46.62927 | 6925 ft | 283 kts | 212° |
| 2026-05-05 22:33 | -23.33698 | -46.64094 | 6648 ft | 281 kts | 212° |
| 2026-05-05 22:33 | -23.35333 | -46.65256 | 6409 ft | 280 kts | 212° |
| 2026-05-05 22:34 | -23.36958 | -46.66412 | 6155 ft | 279 kts | 212° |
| 2026-05-05 22:34 | -23.38582 | -46.67567 | 5976 ft | 278 kts | 212° |
| 2026-05-05 22:34 | -23.40231 | -46.68664 | 5957 ft | 278 kts | 205° |
| 2026-05-05 22:34 | -23.42038 | -46.69083 | 5961 ft | 256 kts | 174° |
| 2026-05-05 22:35 | -23.43626 | -46.68507 | 5953 ft | 231 kts | 144° |
| 2026-05-05 22:35 | -23.44703 | -46.67340 | 5966 ft | 208 kts | 126° |
| 2026-05-05 22:35 | -23.45505 | -46.66092 | 5824 ft | 193 kts | 123° |
| 2026-05-05 22:35 | -23.46222 | -46.64925 | 5567 ft | 180 kts | 123° |
| 2026-05-05 22:36 | -23.46901 | -46.63812 | 5208 ft | 176 kts | 122° |
| 2026-05-05 22:36 | -23.47294 | -46.62585 | 4996 ft | 173 kts | 92° |
| 2026-05-05 22:36 | -23.47269 | -46.61297 | 4810 ft | 167 kts | 82° |
| 2026-05-05 22:36 | -23.46934 | -46.60103 | 4594 ft | 164 kts | 72° |
| 2026-05-05 22:37 | -23.46615 | -46.58909 | 4376 ft | 164 kts | 77° |
| 2026-05-05 22:37 | -23.46304 | -46.57720 | 4162 ft | 160 kts | 75° |
| 2026-05-05 22:37 | -23.45997 | -46.56585 | 3930 ft | 152 kts | 75° |
| 2026-05-05 22:37 | -23.45709 | -46.55514 | 3776 ft | 144 kts | 76° |
| 2026-05-05 22:38 | -23.45430 | -46.54474 | 3553 ft | 142 kts | 76° |
| 2026-05-05 22:38 | -23.45155 | -46.53441 | 3331 ft | 142 kts | 76° |
| 2026-05-05 22:38 | -23.44882 | -46.52407 | 3167 ft | 143 kts | 74° |
| 2026-05-05 22:38 | -23.44598 | -46.51370 | 2950 ft | 142 kts | 75° |
| 2026-05-05 22:39 | -23.44320 | -46.50336 | 2778 ft | 142 kts | 74° |
| 2026-05-05 22:39 | -23.44046 | -46.49315 | 2603 ft | 140 kts | 75° |
| 2026-05-05 22:39 | -23.43765 | -46.48290 | 2474 ft | 142 kts | 74° |
| 2026-05-05 22:39 | -23.43530 | -46.47396 | 2475 ft | 102 kts | 73° |
| 2026-05-05 22:40 | -23.43371 | -46.46814 | 2474 ft | 61 kts | 73° |
| 2026-05-05 22:40 | -23.43292 | -46.46527 | 2475 ft | 18 kts | 73° |
| 2026-05-05 22:40 | -23.43264 | -46.46447 | 2475 ft | 13 kts | 63° |
| 2026-05-05 22:40 | -23.43202 | -46.46348 | 2476 ft | 18 kts | 49° |
| 2026-05-05 22:41 | -23.43111 | -46.46244 | 2475 ft | 20 kts | 46° |
| 2026-05-05 22:41 | -23.43020 | -46.46157 | 2474 ft | 10 kts | 36° |
| 2026-05-05 22:41 | -23.42974 | -46.46136 | 2475 ft | 7 kts | 3° |
| 2026-05-05 22:41 | -23.42903 | -46.46152 | 2476 ft | 12 kts | 346° |
| 2026-05-05 22:42 | -23.42813 | -46.46181 | 2476 ft | 15 kts | 343° |
| 2026-05-05 22:42 | -23.42712 | -46.46214 | 2475 ft | 15 kts | 343° |
| 2026-05-05 22:42 | -23.42635 | -46.46244 | 2474 ft | 10 kts | 323° |
| 2026-05-05 22:42 | -23.42626 | -46.46317 | 2474 ft | 12 kts | 257° |
| 2026-05-05 22:43 | -23.42650 | -46.46414 | 2474 ft | 15 kts | 254° |
| 2026-05-05 22:43 | -23.42682 | -46.46535 | 2474 ft | 18 kts | 251° |
| 2026-05-05 22:43 | -23.42723 | -46.46673 | 2475 ft | 20 kts | 252° |
| 2026-05-05 22:43 | -23.42767 | -46.46830 | 2475 ft | 21 kts | 252° |
| 2026-05-05 22:44 | -23.42799 | -46.46950 | 2474 ft | 14 kts | 257° |
| 2026-05-05 22:44 | -23.42824 | -46.47054 | 2474 ft | 12 kts | 252° |
| 2026-05-05 22:44 | -23.42823 | -46.47116 | 2474 ft | 5 kts | 303° |
| 2026-05-05 22:44 | -23.42783 | -46.47136 | 2474 ft | 8 kts | 340° |
| 2026-05-05 22:45 | -23.42718 | -46.47158 | 2474 ft | 11 kts | 342° |
| 2026-05-05 22:45 | -23.42632 | -46.47187 | 2474 ft | 14 kts | 343° |
| 2026-05-05 22:45 | -23.42539 | -46.47216 | 2474 ft | 10 kts | 343° |
| 2026-05-05 22:45 | -23.42504 | -46.47232 | 2474 ft | 3 kts | 319° |
| 2026-05-05 22:46 | -23.42494 | -46.47264 | 2474 ft | 6 kts | 272° |
| 2026-05-05 22:46 | -23.42504 | -46.47312 | 2474 ft | 7 kts | 254° |
| 2026-05-05 22:46 | -23.42508 | -46.47328 | 2474 ft | 2 kts | 253° |
| 2026-05-05 22:46 | -23.42509 | -46.47331 | 2474 ft | 0 kts | 253° |